Time;durP1;ratioP1;P1;durP2;ratioP2;P2;SDS_P1;SDS_P2;PMS_P1;PMS_P2;Temp;Humidity;BMP_temperature;BMP_pressure;BME280_temperature;BME280_humidity;BME280_pressure;Samples;Min_cycle;Max_cycle;Signal;HPM_P1;HPM_P2
2024/04/02 00:00:37;;;;;;;22.60;11.35;;;8.30;99.90;;;;;;5013286;28;20230;-67
2024/04/02 00:03:07;;;;;;;18.35;11.23;;;8.30;99.90;;;;;;5014215;28;20239;-65
2024/04/02 00:05:38;;;;;;;17.30;11.02;;;8.30;99.90;;;;;;5016100;28;20247;-67
2024/04/02 00:08:06;;;;;;;25.65;11.10;;;8.30;99.90;;;;;;5009477;28;20188;-69
2024/04/02 00:10:33;;;;;;;16.23;11.02;;;8.30;99.90;;;;;;5011166;28;20211;-67
2024/04/02 00:12:59;;;;;;;21.45;10.63;;;8.20;99.90;;;;;;5008791;28;20193;-67
2024/04/02 00:15:24;;;;;;;16.90;11.25;;;8.20;99.90;;;;;;5013266;28;20196;-66
2024/04/02 00:17:51;;;;;;;20.25;11.30;;;8.20;99.90;;;;;;5013728;28;20242;-66
2024/04/02 00:20:17;;;;;;;17.70;11.20;;;8.20;99.90;;;;;;5030028;28;20327;-67
2024/04/02 00:22:44;;;;;;;19.27;11.38;;;8.20;99.90;;;;;;5008604;28;20195;-67
2024/04/02 00:25:10;;;;;;;20.33;11.75;;;8.20;99.90;;;;;;5011182;28;20254;-67
2024/04/02 00:27:36;;;;;;;23.63;12.00;;;8.20;99.90;;;;;;5010005;28;20224;-66
2024/04/02 00:30:03;;;;;;;21.40;11.43;;;8.20;99.90;;;;;;5007817;28;20568;-66
2024/04/02 00:32:29;;;;;;;22.23;11.80;;;8.20;99.90;;;;;;5009723;28;20197;-66
2024/04/02 00:34:55;;;;;;;23.80;11.32;;;8.20;99.90;;;;;;5014736;28;20212;-63
2024/04/02 00:37:21;;;;;;;24.10;11.90;;;8.20;99.90;;;;;;5010636;28;20262;-66
2024/04/02 00:39:47;;;;;;;21.23;11.70;;;8.20;99.90;;;;;;5014785;28;20216;-66
2024/04/02 00:42:13;;;;;;;21.20;12.07;;;8.20;99.90;;;;;;5012480;28;20191;-67
2024/04/02 00:44:39;;;;;;;20.40;11.70;;;8.10;99.90;;;;;;5010830;28;20286;-69
2024/04/02 00:47:09;;;;;;;20.95;10.65;;;8.20;99.90;;;;;;5011555;28;20279;-67
2024/04/02 00:49:36;;;;;;;17.75;10.98;;;8.20;99.90;;;;;;5019546;28;20576;-66
2024/04/02 00:52:02;;;;;;;20.35;11.85;;;8.20;99.90;;;;;;5014011;28;20192;-67
2024/04/02 00:54:31;;;;;;;22.20;11.38;;;8.20;99.90;;;;;;5029089;28;20189;-66
2024/04/02 00:56:57;;;;;;;16.88;10.40;;;8.20;99.90;;;;;;5009394;28;20224;-67
2024/04/02 00:59:23;;;;;;;23.10;10.77;;;8.20;99.90;;;;;;5012413;28;20233;-66
2024/04/02 01:01:50;;;;;;;17.63;10.70;;;8.20;99.90;;;;;;5012580;28;20323;-68
2024/04/02 01:04:17;;;;;;;25.80;10.80;;;8.20;99.90;;;;;;5011374;28;20184;-67
2024/04/02 01:06:44;;;;;;;20.60;11.40;;;8.20;99.90;;;;;;5013563;28;20192;-68
2024/04/02 01:09:10;;;;;;;19.45;10.95;;;8.20;99.90;;;;;;5014064;28;20206;-68
2024/04/02 01:11:36;;;;;;;18.05;11.15;;;8.20;99.90;;;;;;5024259;28;20196;-67
2024/04/02 01:14:02;;;;;;;19.67;10.20;;;8.20;99.90;;;;;;5011837;28;20712;-68
2024/04/02 01:16:28;;;;;;;19.40;10.38;;;8.20;99.90;;;;;;5025639;28;20291;-67
2024/04/02 01:18:54;;;;;;;17.92;10.13;;;8.20;99.90;;;;;;5010430;28;20558;-68
2024/04/02 01:21:20;;;;;;;18.92;10.35;;;8.20;99.90;;;;;;5027789;28;20239;-68
2024/04/02 01:23:46;;;;;;;27.58;11.13;;;8.20;99.90;;;;;;5009841;28;20196;-67
2024/04/02 01:26:12;;;;;;;14.73;10.38;;;8.10;99.90;;;;;;5010358;28;20189;-69
2024/04/02 01:28:38;;;;;;;18.75;10.57;;;8.10;99.90;;;;;;5009166;28;20259;-68
2024/04/02 01:31:04;;;;;;;19.98;11.23;;;8.10;99.90;;;;;;5012178;28;20196;-67
2024/04/02 01:33:30;;;;;;;16.08;10.50;;;8.10;99.90;;;;;;5010211;28;20204;-68
2024/04/02 01:35:56;;;;;;;25.05;11.40;;;8.20;99.90;;;;;;5009815;28;20645;-67
2024/04/02 01:38:22;;;;;;;21.75;10.55;;;8.10;99.90;;;;;;5009346;28;20255;-66
2024/04/02 01:40:47;;;;;;;24.20;11.13;;;8.10;99.90;;;;;;5013067;28;20207;-65
2024/04/02 01:43:13;;;;;;;21.58;12.23;;;8.10;99.90;;;;;;5010017;28;20207;-66
2024/04/02 01:45:39;;;;;;;16.52;10.95;;;8.10;99.90;;;;;;5009297;28;20193;-68
2024/04/02 01:48:05;;;;;;;23.23;10.93;;;8.10;99.90;;;;;;5012465;28;20270;-66
2024/04/02 01:50:31;;;;;;;21.50;11.82;;;8.10;99.90;;;;;;5012984;28;20207;-65
2024/04/02 01:52:56;;;;;;;20.88;11.15;;;8.10;99.90;;;;;;5010772;28;20721;-69
2024/04/02 01:55:22;;;;;;;21.50;11.65;;;8.10;99.90;;;;;;5011292;28;20180;-68
2024/04/02 01:57:48;;;;;;;22.58;12.27;;;8.10;99.90;;;;;;5012360;28;20231;-67
2024/04/02 02:00:14;;;;;;;24.40;12.15;;;8.10;99.90;;;;;;5010142;28;20213;-67
2024/04/02 02:02:40;;;;;;;20.95;11.77;;;8.10;99.90;;;;;;5010136;28;20192;-67
2024/04/02 02:05:07;;;;;;;27.20;12.82;;;8.10;99.90;;;;;;5011762;28;20198;-68
2024/04/02 02:07:33;;;;;;;22.42;12.77;;;8.10;99.90;;;;;;5009080;28;20191;-68
2024/04/02 02:09:58;;;;;;;23.60;12.65;;;8.10;99.90;;;;;;5009222;28;20191;-69
2024/04/02 02:12:24;;;;;;;22.88;12.90;;;8.10;99.90;;;;;;5012326;28;20660;-68
2024/04/02 02:14:50;;;;;;;26.92;13.52;;;8.00;99.90;;;;;;5012300;28;20192;-68
2024/04/02 02:17:15;;;;;;;21.75;12.43;;;8.00;99.90;;;;;;5011255;28;20327;-68
2024/04/02 02:19:41;;;;;;;25.85;14.32;;;8.00;99.90;;;;;;5007774;28;20226;-66
2024/04/02 02:22:07;;;;;;;23.83;14.43;;;8.00;99.90;;;;;;5009675;28;20192;-67
2024/04/02 02:24:33;;;;;;;28.63;13.80;;;8.00;99.90;;;;;;5009828;28;20525;-66
2024/04/02 02:26:59;;;;;;;28.20;15.25;;;8.00;99.90;;;;;;5010709;28;20191;-66
2024/04/02 02:29:25;;;;;;;26.52;15.50;;;7.90;99.90;;;;;;5009763;28;20199;-67
2024/04/02 02:31:54;;;;;;;25.58;14.90;;;7.90;99.90;;;;;;5010742;28;20188;-67
2024/04/02 02:34:20;;;;;;;22.90;15.38;;;7.90;99.90;;;;;;5006438;28;20531;-67
2024/04/02 02:36:46;;;;;;;29.65;16.42;;;7.90;99.90;;;;;;5024621;28;20304;-67
2024/04/02 02:39:12;;;;;;;25.45;15.85;;;7.90;99.90;;;;;;5010473;28;20219;-67
2024/04/02 02:41:38;;;;;;;27.45;16.60;;;7.90;99.90;;;;;;5008631;28;20209;-67
2024/04/02 02:44:04;;;;;;;27.55;16.77;;;7.90;99.90;;;;;;5008797;28;20199;-67
2024/04/02 02:46:30;;;;;;;30.52;17.60;;;7.90;99.90;;;;;;5011532;28;20196;-68
2024/04/02 02:48:58;;;;;;;33.13;17.85;;;7.90;99.90;;;;;;5009055;28;20188;-68
2024/04/02 02:51:24;;;;;;;30.70;17.25;;;7.90;99.90;;;;;;5008930;28;20203;-67
2024/04/02 02:53:49;;;;;;;27.08;17.52;;;7.90;99.90;;;;;;5012394;28;20200;-66
2024/04/02 02:56:15;;;;;;;34.42;18.92;;;7.90;99.90;;;;;;5012048;28;20191;-67
2024/04/02 02:58:42;;;;;;;35.40;18.38;;;7.90;99.90;;;;;;5025220;28;20203;-66
2024/04/02 03:01:07;;;;;;;32.33;19.25;;;7.90;99.90;;;;;;5013833;28;20243;-68
2024/04/02 03:03:33;;;;;;;31.08;18.90;;;7.90;99.90;;;;;;5012844;28;20311;-68
2024/04/02 03:05:59;;;;;;;31.25;18.65;;;7.90;99.90;;;;;;5008933;28;20199;-67
2024/04/02 03:08:25;;;;;;;31.67;18.85;;;7.90;99.90;;;;;;5007696;28;20192;-65
2024/04/02 03:11:03;;;;;;;35.05;20.27;;;7.90;99.90;;;;;;5007834;28;20277;-68
2024/04/02 03:13:29;;;;;;;37.60;20.23;;;8.00;99.90;;;;;;5017849;28;20664;-67
2024/04/02 03:15:55;;;;;;;33.03;20.20;;;8.00;99.90;;;;;;5012772;28;20540;-66
2024/04/02 03:18:22;;;;;;;34.88;20.88;;;8.00;99.90;;;;;;5008957;28;20206;-66
2024/04/02 03:20:47;;;;;;;31.85;21.05;;;8.00;99.90;;;;;;5006918;28;20216;-67
2024/04/02 03:23:13;;;;;;;38.85;20.85;;;8.10;99.90;;;;;;5008590;28;20579;-67
2024/04/02 03:25:39;;;;;;;33.40;21.52;;;8.00;99.90;;;;;;5009295;28;20231;-66
2024/04/02 03:28:05;;;;;;;35.42;21.70;;;8.10;99.90;;;;;;5010303;28;20191;-67
2024/04/02 03:30:31;;;;;;;38.42;22.50;;;8.10;99.90;;;;;;5006357;28;20197;-68
2024/04/02 03:32:57;;;;;;;34.50;22.27;;;8.10;99.90;;;;;;5011927;28;20245;-65
2024/04/02 03:35:23;;;;;;;36.72;23.88;;;8.10;99.90;;;;;;5013311;28;20604;-68
2024/04/02 03:37:49;;;;;;;38.45;22.45;;;8.20;99.90;;;;;;5030572;28;20254;-67
2024/04/02 03:40:15;;;;;;;36.97;23.92;;;8.20;99.90;;;;;;5013755;28;20226;-67
2024/04/02 03:42:40;;;;;;;37.40;23.35;;;8.20;99.90;;;;;;5010579;28;20188;-68
2024/04/02 03:45:08;;;;;;;40.28;23.65;;;8.20;99.90;;;;;;5018618;28;20188;-66
2024/04/02 03:47:34;;;;;;;37.55;23.35;;;8.20;99.90;;;;;;5010929;28;20664;-66
2024/04/02 03:49:59;;;;;;;35.08;23.42;;;8.20;99.90;;;;;;5008486;28;20189;-67
2024/04/02 03:52:25;;;;;;;39.22;25.73;;;8.20;99.90;;;;;;5015624;28;20521;-68
2024/04/02 03:54:51;;;;;;;39.03;24.30;;;8.20;99.90;;;;;;5026896;28;20189;-68
2024/04/02 03:57:16;;;;;;;36.65;23.63;;;8.20;99.90;;;;;;5009907;28;20192;-67
2024/04/02 03:59:42;;;;;;;38.75;24.05;;;8.20;99.90;;;;;;5007823;28;20223;-66
2024/04/02 04:02:08;;;;;;;38.20;23.23;;;8.20;99.90;;;;;;5012622;28;20185;-65
2024/04/02 04:04:34;;;;;;;35.58;23.00;;;8.20;99.90;;;;;;5028981;28;20419;-68
2024/04/02 04:06:59;;;;;;;33.30;23.10;;;8.20;99.90;;;;;;5014860;28;21286;-66
2024/04/02 04:09:25;;;;;;;34.50;22.55;;;8.10;99.90;;;;;;5009597;28;20220;-68
2024/04/02 04:11:51;;;;;;;37.15;22.45;;;8.10;99.90;;;;;;5011084;28;20203;-66
2024/04/02 04:14:17;;;;;;;31.85;21.30;;;8.10;99.90;;;;;;5006500;28;20207;-66
2024/04/02 04:16:43;;;;;;;31.80;21.23;;;8.10;99.90;;;;;;5009214;28;20188;-66
2024/04/02 04:19:09;;;;;;;31.88;21.17;;;8.10;99.90;;;;;;5013987;28;20274;-68
2024/04/02 04:21:34;;;;;;;30.67;20.88;;;8.00;99.90;;;;;;5011647;28;20223;-67
2024/04/02 04:24:00;;;;;;;32.28;20.98;;;8.00;99.90;;;;;;5009116;28;20197;-68
2024/04/02 04:26:26;;;;;;;29.17;20.08;;;8.00;99.90;;;;;;5009279;28;20185;-67
2024/04/02 04:28:52;;;;;;;33.85;21.77;;;8.00;99.90;;;;;;5023367;28;20251;-66
2024/04/02 04:31:18;;;;;;;33.08;20.88;;;8.00;99.90;;;;;;5010154;28;20214;-67
2024/04/02 04:33:43;;;;;;;28.75;20.38;;;8.00;99.90;;;;;;5008466;28;20184;-67
2024/04/02 04:36:10;;;;;;;28.55;20.58;;;8.00;99.90;;;;;;5013722;28;20232;-67
2024/04/02 04:38:36;;;;;;;31.25;20.55;;;8.00;99.90;;;;;;5009994;28;20192;-68
2024/04/02 04:41:01;;;;;;;36.58;20.10;;;8.00;99.90;;;;;;5011417;28;20201;-67
2024/04/02 04:43:27;;;;;;;28.67;19.83;;;7.90;99.90;;;;;;5009534;28;20200;-69
2024/04/02 04:45:58;;;;;;;29.42;19.83;;;8.00;99.90;;;;;;5007904;28;20189;-67
2024/04/02 04:48:24;;;;;;;31.58;20.33;;;8.00;99.90;;;;;;5010631;28;20193;-67
2024/04/02 04:50:57;;;;;;;31.55;19.77;;;8.00;99.90;;;;;;5025531;28;20207;-68
2024/04/02 04:53:23;;;;;;;28.13;19.75;;;7.90;99.90;;;;;;5013786;28;20569;-66
2024/04/02 04:55:49;;;;;;;28.27;19.85;;;8.00;99.90;;;;;;5013040;28;20192;-66
2024/04/02 04:58:15;;;;;;;28.70;19.63;;;8.00;99.90;;;;;;5013794;28;20228;-68
2024/04/02 05:00:40;;;;;;;29.52;20.15;;;7.90;99.90;;;;;;5011296;28;20556;-67
2024/04/02 05:03:06;;;;;;;31.35;19.63;;;8.00;99.90;;;;;;5015363;28;20195;-67
2024/04/02 05:05:33;;;;;;;25.48;19.05;;;7.90;99.90;;;;;;5031550;28;20192;-68
2024/04/02 05:08:16;;;;;;;25.85;18.70;;;7.90;99.90;;;;;;5013105;28;20624;-69
2024/04/02 05:10:43;;;;;;;28.92;18.80;;;7.90;99.90;;;;;;5015688;28;20250;-66
2024/04/02 05:13:08;;;;;;;27.73;18.67;;;7.90;99.90;;;;;;4995915;28;20196;-67
2024/04/02 05:15:34;;;;;;;26.45;17.88;;;7.90;99.90;;;;;;5016405;28;20191;-66
2024/04/02 05:18:00;;;;;;;29.13;17.48;;;7.90;99.90;;;;;;5030241;28;20201;-66
2024/04/02 05:20:26;;;;;;;27.85;17.13;;;7.90;99.90;;;;;;5014142;28;20216;-68
2024/04/02 05:22:52;;;;;;;26.63;18.55;;;7.90;99.90;;;;;;5017568;28;20184;-68
2024/04/02 05:25:18;;;;;;;22.73;17.45;;;7.90;99.90;;;;;;5015130;28;20308;-66
2024/04/02 05:27:43;;;;;;;25.63;17.55;;;7.90;99.90;;;;;;5012038;28;20330;-68
2024/04/02 05:30:09;;;;;;;23.90;17.25;;;7.90;99.90;;;;;;5009740;28;20372;-66
2024/04/02 05:32:35;;;;;;;23.75;16.95;;;8.00;99.90;;;;;;5012107;28;20196;-68
2024/04/02 05:35:02;;;;;;;24.27;16.77;;;8.00;99.90;;;;;;5012366;28;20594;-67
2024/04/02 05:37:28;;;;;;;22.30;15.73;;;7.90;99.90;;;;;;5015486;28;20251;-67
2024/04/02 05:39:54;;;;;;;25.73;16.92;;;8.00;99.90;;;;;;5012386;28;20216;-67
2024/04/02 05:42:20;;;;;;;20.67;16.45;;;8.00;99.90;;;;;;5013749;28;20201;-68
2024/04/02 05:44:45;;;;;;;28.05;16.95;;;8.00;99.90;;;;;;5012795;28;20288;-67
2024/04/02 05:47:11;;;;;;;22.48;16.33;;;8.00;99.90;;;;;;5011087;28;20204;-66
2024/04/02 05:49:37;;;;;;;21.90;15.90;;;8.00;99.90;;;;;;5012777;28;20189;-69
2024/04/02 05:52:03;;;;;;;25.70;17.08;;;8.00;99.90;;;;;;5015243;28;20637;-67
2024/04/02 05:54:28;;;;;;;23.55;15.32;;;8.10;99.90;;;;;;5014287;28;20199;-67
2024/04/02 05:56:54;;;;;;;26.45;14.77;;;8.10;99.90;;;;;;5010551;28;20308;-66
2024/04/02 05:59:20;;;;;;;20.90;14.77;;;8.10;99.90;;;;;;5010814;28;20180;-66
2024/04/02 06:01:45;;;;;;;20.88;14.68;;;8.10;99.90;;;;;;5011774;28;20212;-68
2024/04/02 06:04:11;;;;;;;19.02;14.60;;;8.20;99.90;;;;;;5012155;28;20216;-67
2024/04/02 06:06:37;;;;;;;25.27;14.45;;;8.20;99.90;;;;;;5012287;28;20189;-66
2024/04/02 06:09:03;;;;;;;26.00;14.73;;;8.20;99.90;;;;;;5012556;28;21030;-66
2024/04/02 06:11:28;;;;;;;22.20;14.60;;;8.30;99.90;;;;;;5012822;28;20210;-68
2024/04/02 06:13:54;;;;;;;18.70;13.10;;;8.30;99.90;;;;;;5026477;28;20196;-67
2024/04/02 06:16:20;;;;;;;21.30;13.25;;;8.40;99.90;;;;;;5010753;28;20189;-68
2024/04/02 06:18:45;;;;;;;19.08;12.77;;;8.40;99.90;;;;;;5008862;28;20196;-67
2024/04/02 06:21:11;;;;;;;19.00;12.80;;;8.50;99.90;;;;;;5013793;28;20216;-67
2024/04/02 06:23:37;;;;;;;17.48;12.45;;;8.50;99.90;;;;;;5011373;28;20672;-65
2024/04/02 06:26:02;;;;;;;17.27;12.13;;;8.60;99.90;;;;;;5010670;28;20256;-67
2024/04/02 06:28:28;;;;;;;20.02;11.52;;;8.60;99.90;;;;;;5012651;28;20180;-65
2024/04/02 06:30:54;;;;;;;19.42;11.52;;;8.60;99.90;;;;;;5011172;28;20219;-66
2024/04/02 06:33:19;;;;;;;15.65;11.05;;;8.70;99.90;;;;;;5013308;28;20243;-68
2024/04/02 06:35:45;;;;;;;19.48;12.18;;;8.70;99.90;;;;;;5011790;28;20199;-67
2024/04/02 06:38:11;;;;;;;17.23;11.77;;;8.80;99.90;;;;;;5011367;28;20199;-67
2024/04/02 06:40:37;;;;;;;17.10;10.88;;;8.90;99.90;;;;;;5030444;28;20239;-69
2024/04/02 06:43:02;;;;;;;17.65;11.48;;;8.90;99.90;;;;;;5011805;28;20180;-68
2024/04/02 06:45:28;;;;;;;16.10;11.10;;;8.90;99.90;;;;;;5011612;28;20196;-67
2024/04/02 06:47:54;;;;;;;14.57;11.05;;;9.00;99.90;;;;;;5008460;28;20238;-65
2024/04/02 06:50:20;;;;;;;14.20;10.98;;;9.00;99.90;;;;;;5016398;28;20191;-67
2024/04/02 06:52:46;;;;;;;17.58;11.75;;;9.00;99.90;;;;;;5011275;28;20206;-66
2024/04/02 06:55:12;;;;;;;15.50;10.45;;;9.10;99.90;;;;;;5008770;28;20196;-67
2024/04/02 06:57:37;;;;;;;14.10;10.80;;;9.10;99.90;;;;;;5007313;28;20200;-65
2024/04/02 07:00:06;;;;;;;15.07;10.50;;;9.20;99.90;;;;;;5009030;28;20413;-67
2024/04/02 07:02:32;;;;;;;13.02;10.32;;;9.30;99.90;;;;;;5001491;28;20590;-65
2024/04/02 07:04:58;;;;;;;14.65;10.18;;;9.30;99.90;;;;;;5011614;28;20192;-67
2024/04/02 07:07:24;;;;;;;15.45;10.57;;;9.40;99.90;;;;;;5011685;28;20553;-67
2024/04/02 07:09:50;;;;;;;15.23;10.40;;;9.40;99.90;;;;;;5010641;28;20223;-65
2024/04/02 07:12:16;;;;;;;18.27;10.68;;;9.40;99.90;;;;;;5008842;28;20200;-67
2024/04/02 07:14:41;;;;;;;14.05;9.43;;;9.50;99.90;;;;;;5016946;28;20211;-67
2024/04/02 07:17:07;;;;;;;15.02;9.77;;;9.60;99.90;;;;;;5013709;28;20304;-66
2024/04/02 07:19:33;;;;;;;13.13;10.27;;;9.60;99.90;;;;;;5022243;28;20199;-69
2024/04/02 07:21:58;;;;;;;13.93;10.00;;;9.70;99.90;;;;;;5018441;28;20192;-68
2024/04/02 07:24:24;;;;;;;21.88;10.45;;;9.70;99.90;;;;;;5016721;28;20180;-67
2024/04/02 07:26:50;;;;;;;16.08;9.55;;;9.80;99.90;;;;;;5013309;28;20273;-67
2024/04/02 07:29:15;;;;;;;16.13;9.63;;;9.90;99.90;;;;;;5013453;28;20227;-74
2024/04/02 07:31:41;;;;;;;15.55;10.00;;;9.90;99.90;;;;;;5006343;28;20250;-67
2024/04/02 07:34:07;;;;;;;15.98;9.30;;;10.00;99.90;;;;;;5015172;28;20224;-67
2024/04/02 07:36:32;;;;;;;16.20;10.55;;;10.10;99.90;;;;;;5014758;28;20236;-66
2024/04/02 07:38:58;;;;;;;18.73;9.82;;;10.20;99.90;;;;;;5014488;28;20192;-67
2024/04/02 07:41:24;;;;;;;13.10;8.82;;;10.30;99.90;;;;;;5013734;28;20284;-67
2024/04/02 07:43:49;;;;;;;13.30;9.18;;;10.30;99.90;;;;;;5015070;28;20188;-65
2024/04/02 07:46:15;;;;;;;13.50;9.02;;;10.40;99.90;;;;;;5014654;28;20195;-65
2024/04/02 07:48:41;;;;;;;17.02;9.02;;;10.50;99.90;;;;;;5017051;28;20196;-66
2024/04/02 07:51:10;;;;;;;16.10;9.18;;;10.60;99.90;;;;;;5011090;28;20936;-67
2024/04/02 07:53:36;;;;;;;17.25;9.25;;;10.80;99.90;;;;;;5015358;28;20196;-67
2024/04/02 07:56:03;;;;;;;14.70;8.63;;;10.90;99.90;;;;;;5015869;28;20191;-66
2024/04/02 07:58:28;;;;;;;21.50;9.60;;;11.00;99.90;;;;;;5011358;28;20196;-68
2024/04/02 08:00:54;;;;;;;14.90;8.25;;;11.20;99.90;;;;;;5012271;28;20212;-68
2024/04/02 08:03:20;;;;;;;13.65;8.25;;;11.30;99.90;;;;;;5027334;28;20192;-67
2024/04/02 08:05:54;;;;;;;13.90;8.60;;;11.40;99.90;;;;;;5013941;28;20552;-68
2024/04/02 08:08:20;;;;;;;12.35;8.43;;;11.50;99.90;;;;;;5012319;28;20191;-67
2024/04/02 08:10:46;;;;;;;16.20;8.80;;;11.70;99.90;;;;;;5014012;28;20672;-67
2024/04/02 08:13:11;;;;;;;17.13;8.65;;;11.70;99.90;;;;;;5013207;28;20201;-67
2024/04/02 08:15:38;;;;;;;12.82;7.82;;;11.80;99.90;;;;;;5031345;28;20196;-66
2024/04/02 08:18:04;;;;;;;11.77;7.40;;;11.90;99.90;;;;;;5014386;28;20212;-66
2024/04/02 08:20:30;;;;;;;12.80;7.85;;;12.00;99.90;;;;;;5012839;28;20231;-67
2024/04/02 08:22:57;;;;;;;15.23;8.18;;;12.00;99.90;;;;;;5010443;28;20188;-68
2024/04/02 08:25:23;;;;;;;17.42;8.13;;;12.00;99.90;;;;;;5033560;28;20210;-66
2024/04/02 08:27:49;;;;;;;14.52;8.10;;;12.00;99.90;;;;;;5011332;28;20718;-67
2024/04/02 08:30:14;;;;;;;13.20;7.80;;;12.10;99.90;;;;;;5011308;28;20200;-67
2024/04/02 08:32:40;;;;;;;12.30;7.82;;;12.10;99.90;;;;;;5016627;28;20199;-68
2024/04/02 08:35:06;;;;;;;13.32;7.55;;;12.20;99.90;;;;;;5014101;28;20223;-67
2024/04/02 08:37:32;;;;;;;15.27;7.10;;;12.20;99.90;;;;;;5013412;28;20322;-66
2024/04/02 08:39:57;;;;;;;13.52;6.95;;;12.30;99.90;;;;;;5014939;28;20314;-66
2024/04/02 08:42:26;;;;;;;11.90;6.60;;;12.30;99.90;;;;;;5030296;28;20283;-70
2024/04/02 08:44:54;;;;;;;12.05;7.13;;;12.40;99.90;;;;;;5012726;28;20241;-67
2024/04/02 08:47:21;;;;;;;15.48;6.80;;;12.50;99.90;;;;;;5012772;28;20192;-67
2024/04/02 08:49:47;;;;;;;15.38;6.88;;;12.60;99.90;;;;;;5009600;28;20574;-68
2024/04/02 08:52:13;;;;;;;15.65;6.72;;;12.80;99.90;;;;;;5013449;28;20259;-67
2024/04/02 08:54:39;;;;;;;13.52;6.22;;;12.80;99.90;;;;;;5013020;28;20361;-67
2024/04/02 08:57:06;;;;;;;13.15;6.68;;;12.90;99.90;;;;;;5029025;28;20180;-69
2024/04/02 08:59:34;;;;;;;13.45;7.47;;;12.90;99.90;;;;;;5011017;28;20203;-68
2024/04/02 09:02:01;;;;;;;13.38;5.75;;;13.00;99.90;;;;;;5014162;28;20280;-66
2024/04/02 09:04:29;;;;;;;11.50;5.80;;;12.90;99.90;;;;;;5012392;28;20193;-67
2024/04/02 09:06:55;;;;;;;14.38;6.32;;;12.90;99.90;;;;;;5015186;28;20177;-66
2024/04/02 09:09:24;;;;;;;12.35;6.70;;;12.80;99.90;;;;;;5011141;28;20196;-67
2024/04/02 09:11:51;;;;;;;14.57;6.28;;;12.80;99.90;;;;;;5011296;28;20581;-67
2024/04/02 09:14:18;;;;;;;16.27;5.82;;;12.80;99.90;;;;;;5029590;28;20299;-65
2024/04/02 09:16:44;;;;;;;16.80;6.18;;;12.90;99.90;;;;;;5008284;28;20536;-66
2024/04/02 09:19:10;;;;;;;11.90;5.93;;;13.00;99.90;;;;;;5012506;28;20258;-69
2024/04/02 09:21:36;;;;;;;11.63;5.43;;;13.10;99.90;;;;;;5012660;28;20208;-66
2024/04/02 09:24:02;;;;;;;17.90;6.10;;;13.10;99.90;;;;;;5012921;28;20184;-67
2024/04/02 09:26:27;;;;;;;18.48;5.90;;;13.20;99.90;;;;;;5015146;28;20834;-67
2024/04/02 09:28:53;;;;;;;16.15;5.60;;;13.30;99.90;;;;;;5015268;28;20189;-66
2024/04/02 09:31:19;;;;;;;13.57;5.95;;;13.30;99.90;;;;;;5009502;28;20330;-67
2024/04/02 09:33:49;;;;;;;10.68;5.43;;;13.20;99.90;;;;;;5013083;28;20180;-68
2024/04/02 09:36:42;;;;;;;15.00;5.30;;;13.30;99.90;;;;;;5014516;28;20227;-67
2024/04/02 09:39:13;;;;;;;13.95;5.63;;;13.30;99.90;;;;;;5012014;28;20193;-68
2024/04/02 09:41:44;;;;;;;10.60;5.20;;;13.30;99.90;;;;;;5014625;28;20212;-65
2024/04/02 09:44:15;;;;;;;11.88;6.18;;;13.30;99.90;;;;;;5013598;28;20197;-67
2024/04/02 09:46:42;;;;;;;11.50;5.53;;;13.30;99.90;;;;;;5012021;28;20279;-67
2024/04/02 09:49:10;;;;;;;17.38;5.47;;;13.40;99.90;;;;;;5012845;28;20287;-67
2024/04/02 09:51:38;;;;;;;17.75;5.53;;;13.40;99.90;;;;;;5014831;28;20196;-70
2024/04/02 09:54:04;;;;;;;12.82;5.50;;;13.50;99.90;;;;;;5015492;28;20192;-68
2024/04/02 09:56:34;;;;;;;18.25;6.53;;;13.60;99.90;;;;;;5011015;28;20200;-68
2024/04/02 09:59:04;;;;;;;12.65;4.70;;;13.70;99.90;;;;;;5011607;28;20249;-67
2024/04/02 10:01:34;;;;;;;14.63;4.47;;;13.80;99.90;;;;;;5013232;28;20224;-67
2024/04/02 10:04:09;;;;;;;12.68;4.47;;;13.90;99.90;;;;;;5010669;28;20215;-69
2024/04/02 10:06:36;;;;;;;15.82;4.32;;;14.00;99.90;;;;;;5014143;28;20196;-66
2024/04/02 10:09:14;;;;;;;15.23;4.82;;;14.00;99.90;;;;;;5013122;28;20191;-69
2024/04/02 10:11:41;;;;;;;15.38;4.57;;;14.20;99.90;;;;;;5012904;28;20200;-67
2024/04/02 10:14:12;;;;;;;15.15;4.35;;;14.30;99.90;;;;;;5012905;28;20203;-67
2024/04/02 10:16:47;;;;;;;12.52;4.30;;;14.40;99.90;;;;;;5011754;28;20191;-67
2024/04/02 10:19:22;;;;;;;13.23;4.60;;;14.40;99.90;;;;;;5019900;28;20196;-68
2024/04/02 10:21:48;;;;;;;13.65;4.68;;;14.40;99.90;;;;;;5013476;28;20211;-67
2024/04/02 10:24:19;;;;;;;12.77;4.40;;;14.40;99.90;;;;;;5010645;28;20208;-67
2024/04/02 10:26:45;;;;;;;11.48;4.35;;;14.30;99.90;;;;;;5011228;28;20713;-68
2024/04/02 10:29:11;;;;;;;15.15;4.60;;;14.30;99.90;;;;;;5013153;28;20219;-67
2024/04/02 10:31:41;;;;;;;10.50;4.50;;;14.20;99.90;;;;;;5010883;28;20942;-68
2024/04/02 10:34:11;;;;;;;11.45;4.80;;;14.20;99.90;;;;;;5011691;28;20220;-67
2024/04/02 10:36:40;;;;;;;10.85;4.53;;;14.20;99.90;;;;;;5008575;28;20216;-67
2024/04/02 10:39:09;;;;;;;16.30;5.20;;;14.10;99.90;;;;;;5006276;28;20189;-67
2024/04/02 10:41:37;;;;;;;11.73;4.63;;;14.00;99.90;;;;;;5015509;28;20233;-69
2024/04/02 10:44:03;;;;;;;13.15;4.90;;;13.90;99.90;;;;;;5011717;28;20187;-65
2024/04/02 10:46:29;;;;;;;14.23;4.75;;;13.90;99.90;;;;;;5012349;28;20283;-69
2024/04/02 10:48:59;;;;;;;10.95;4.63;;;13.90;99.90;;;;;;5015313;28;20193;-67
2024/04/02 10:51:30;;;;;;;11.38;4.80;;;13.90;99.90;;;;;;5016437;28;20189;-67
2024/04/02 10:53:57;;;;;;;11.45;5.63;;;13.90;99.90;;;;;;5017784;28;20269;-66
2024/04/02 10:56:28;;;;;;;12.85;5.43;;;13.90;99.90;;;;;;5019391;28;20218;-68
2024/04/02 10:58:54;;;;;;;13.70;4.95;;;13.80;99.90;;;;;;5017343;28;20206;-68
2024/04/02 11:01:21;;;;;;;13.00;5.05;;;13.80;99.90;;;;;;5011847;28;20235;-68
2024/04/02 11:03:52;;;;;;;16.98;6.00;;;13.90;99.90;;;;;;5018302;28;20235;-68
2024/04/02 11:06:18;;;;;;;10.68;5.43;;;13.90;99.90;;;;;;5015841;28;20705;-67
2024/04/02 11:08:48;;;;;;;12.00;5.72;;;13.90;99.90;;;;;;5016695;28;20189;-68
2024/04/02 11:11:22;;;;;;;15.68;5.75;;;13.90;99.90;;;;;;5014512;28;20215;-69
2024/04/02 11:13:48;;;;;;;14.40;6.25;;;13.90;99.90;;;;;;5019418;28;20191;-68
2024/04/02 11:16:18;;;;;;;14.68;6.15;;;13.90;99.90;;;;;;5014870;28;20729;-67
2024/04/02 11:18:44;;;;;;;16.50;6.00;;;13.90;99.90;;;;;;5016165;28;20202;-69
2024/04/02 11:21:17;;;;;;;14.85;6.47;;;13.80;99.90;;;;;;5017384;28;20525;-67
2024/04/02 11:26:48;;;;;;;12.23;6.32;;;13.90;99.90;;;;;;5012974;28;20223;-66
2024/04/02 11:29:15;;;;;;;8.98;5.75;;;14.00;99.90;;;;;;5015373;28;20196;-67
2024/04/02 11:31:40;;;;;;;12.82;6.30;;;14.10;99.90;;;;;;5029888;28;20193;-68
2024/04/02 11:34:06;;;;;;;14.45;6.10;;;14.30;99.90;;;;;;5017444;28;20188;-70
2024/04/02 11:36:32;;;;;;;14.43;6.38;;;14.30;99.90;;;;;;5008805;28;20274;-68
2024/04/02 11:38:58;;;;;;;13.63;6.20;;;14.30;99.90;;;;;;5019789;28;20192;-66
2024/04/02 11:41:24;;;;;;;14.55;6.38;;;14.40;99.90;;;;;;5017545;28;20227;-68
2024/04/02 11:43:50;;;;;;;14.50;6.13;;;14.50;99.90;;;;;;5014181;28;20263;-69
2024/04/02 11:46:16;;;;;;;11.07;6.00;;;14.50;99.90;;;;;;5017061;28;20334;-68
2024/04/02 11:48:41;;;;;;;14.55;5.72;;;14.50;99.90;;;;;;5012308;28;20224;-67
2024/04/02 11:51:07;;;;;;;11.32;5.22;;;14.50;99.90;;;;;;5028814;28;20194;-68
2024/04/02 11:53:33;;;;;;;13.60;6.07;;;14.50;99.90;;;;;;5031322;28;20562;-69
2024/04/02 11:55:59;;;;;;;13.70;6.28;;;14.40;99.90;;;;;;5013888;28;20219;-67
2024/04/02 12:01:08;;;;;;;12.38;5.32;;;14.30;99.90;;;;;;5017502;28;20245;-66
2024/04/02 12:03:34;;;;;;;11.05;4.35;;;14.30;99.90;;;;;;5018207;28;20187;-67
2024/04/02 12:06:00;;;;;;;8.32;4.45;;;14.40;99.90;;;;;;5030148;28;20676;-67
2024/04/02 12:08:25;;;;;;;12.70;4.60;;;14.40;99.90;;;;;;5013571;28;20244;-67
2024/04/02 12:10:51;;;;;;;14.85;6.13;;;14.60;99.90;;;;;;5014795;28;20310;-70
2024/04/02 12:13:17;;;;;;;9.85;4.10;;;14.70;99.90;;;;;;5014503;28;20214;-67
2024/04/02 12:15:43;;;;;;;10.20;3.50;;;14.70;99.90;;;;;;5014653;28;20675;-67
2024/04/02 12:18:09;;;;;;;13.60;3.63;;;14.80;99.90;;;;;;5014200;28;20198;-68
2024/04/02 12:20:35;;;;;;;9.43;3.15;;;14.90;99.90;;;;;;5017348;28;20292;-67
2024/04/02 12:23:00;;;;;;;11.25;3.47;;;15.00;99.90;;;;;;5014247;28;20278;-68
2024/04/02 12:25:26;;;;;;;8.45;3.53;;;14.90;99.90;;;;;;5013915;28;20618;-66
2024/04/02 12:27:55;;;;;;;13.00;3.95;;;14.90;99.90;;;;;;5012464;28;20288;-68
2024/04/02 12:30:21;;;;;;;12.55;3.15;;;15.00;99.90;;;;;;5030276;28;20199;-68
2024/04/02 12:32:48;;;;;;;8.32;2.85;;;15.10;99.90;;;;;;5012796;28;20311;-68
2024/04/02 12:35:16;;;;;;;8.10;3.00;;;15.20;99.90;;;;;;5017501;28;20230;-67
2024/04/02 12:37:42;;;;;;;11.13;2.85;;;15.20;99.90;;;;;;5014782;28;20712;-67
2024/04/02 12:40:10;;;;;;;10.35;3.55;;;15.20;99.90;;;;;;5013417;28;20277;-67